createdAt,value
2018-08-06T00:00:31.486Z,22.67
2018-08-06T00:01:31.483Z,22.71
2018-08-06T00:02:31.485Z,22.64
2018-08-06T00:03:31.513Z,22.67
2018-08-06T00:04:31.491Z,22.74
2018-08-06T00:05:31.481Z,22.71
2018-08-06T00:06:31.486Z,22.65
2018-08-06T00:07:31.507Z,22.62
2018-08-06T00:08:31.529Z,22.57
2018-08-06T00:09:31.496Z,22.52
2018-08-06T00:10:31.491Z,22.52
2018-08-06T00:11:31.497Z,22.50
2018-08-06T00:12:31.480Z,22.44
2018-08-06T00:13:31.483Z,22.53
2018-08-06T00:14:31.481Z,22.56
2018-08-06T00:15:31.484Z,22.46
2018-08-06T00:16:31.487Z,22.50
2018-08-06T00:17:31.478Z,22.43
2018-08-06T00:18:31.469Z,22.46
2018-08-06T00:19:31.477Z,22.46
2018-08-06T00:20:31.481Z,22.47
2018-08-06T00:21:31.480Z,22.46
2018-08-06T00:22:31.494Z,22.47
2018-08-06T00:23:31.525Z,22.47
2018-08-06T00:24:31.476Z,22.50
2018-08-06T00:25:31.482Z,22.52
2018-08-06T00:26:31.476Z,22.47
2018-08-06T00:27:31.527Z,22.46
2018-08-06T00:28:31.477Z,22.52
2018-08-06T00:29:31.534Z,22.52
2018-08-06T00:30:31.497Z,22.52
2018-08-06T00:31:31.471Z,22.50
2018-08-06T00:32:31.485Z,22.50
2018-08-06T00:33:31.475Z,22.38
2018-08-06T00:34:31.479Z,22.29
2018-08-06T00:35:31.476Z,22.35
2018-08-06T00:36:31.488Z,22.34
2018-08-06T00:37:31.480Z,22.46
2018-08-06T00:38:31.482Z,22.53
2018-08-06T00:39:31.480Z,22.47
2018-08-06T00:40:31.513Z,22.44
2018-08-06T00:41:31.481Z,22.35
2018-08-06T00:42:31.476Z,22.39
2018-08-06T00:43:31.475Z,22.37
2018-08-06T00:44:31.475Z,22.27
2018-08-06T00:45:31.486Z,22.28
2018-08-06T00:46:31.478Z,22.28
2018-08-06T00:47:31.475Z,22.23
2018-08-06T00:48:31.483Z,22.27
2018-08-06T00:49:31.474Z,22.25
2018-08-06T00:50:31.472Z,22.31
2018-08-06T00:51:31.466Z,22.29
2018-08-06T00:52:31.470Z,22.20
2018-08-06T00:53:31.471Z,22.22
2018-08-06T00:54:31.479Z,22.28
2018-08-06T00:55:31.477Z,22.17
2018-08-06T00:56:31.495Z,22.20
2018-08-06T00:57:31.467Z,22.16
2018-08-06T00:58:31.472Z,22.12
2018-08-06T00:59:31.484Z,22.12
2018-08-06T01:00:31.463Z,22.02
2018-08-06T01:01:31.477Z,21.98
2018-08-06T01:02:31.494Z,21.97
2018-08-06T01:03:31.469Z,22.12
2018-08-06T01:04:31.484Z,22.14
2018-08-06T01:05:31.493Z,22.17
2018-08-06T01:06:31.475Z,22.09
2018-08-06T01:07:31.481Z,22.06
2018-08-06T01:08:31.520Z,22.12
2018-08-06T01:09:31.472Z,22.12
2018-08-06T01:10:31.464Z,22.09
2018-08-06T01:11:31.462Z,22.02
2018-08-06T01:12:31.507Z,22.01
2018-08-06T01:13:31.463Z,21.98
2018-08-06T01:14:31.469Z,21.97
2018-08-06T01:15:31.464Z,21.95
2018-08-06T01:16:31.463Z,21.99
2018-08-06T01:17:31.454Z,22.02
2018-08-06T01:18:31.465Z,21.97
2018-08-06T01:19:31.490Z,22.06
2018-08-06T01:20:31.527Z,21.98
2018-08-06T01:21:31.468Z,21.94
2018-08-06T01:22:31.479Z,21.97
2018-08-06T01:23:31.506Z,21.95
2018-08-06T01:24:31.460Z,21.88
2018-08-06T01:25:31.459Z,21.94
2018-08-06T01:26:31.459Z,21.85
2018-08-06T01:27:31.460Z,21.95
2018-08-06T01:28:31.481Z,21.92
2018-08-06T01:29:31.459Z,21.94
2018-08-06T01:30:31.451Z,21.92
2018-08-06T02:04:47.780Z,21.85
2018-08-06T02:05:47.756Z,21.72
2018-08-06T02:07:40.667Z,21.61
2018-08-06T02:08:40.650Z,21.61
2018-08-06T02:10:33.574Z,21.59
2018-08-06T02:11:34.508Z,21.61
2018-08-06T02:13:26.457Z,21.51
2018-08-06T02:14:26.431Z,21.50
2018-08-06T02:16:19.348Z,21.63
2018-08-06T02:17:19.346Z,21.45
2018-08-06T02:19:12.251Z,21.48
2018-08-06T02:20:12.230Z,21.46
2018-08-06T02:22:05.133Z,21.35
2018-08-06T02:23:05.120Z,21.32
2018-08-06T02:24:58.071Z,21.41
2018-08-06T02:25:58.056Z,21.35
2018-08-06T02:27:50.999Z,21.30
2018-08-06T02:28:50.985Z,21.17
2018-08-06T02:30:43.897Z,21.11
2018-08-06T02:31:43.877Z,21.13
2018-08-06T02:33:36.834Z,21.14
2018-08-06T02:34:36.817Z,21.04
2018-08-06T02:36:29.740Z,21.01
2018-08-06T02:37:29.728Z,20.86
2018-08-06T02:39:22.670Z,20.90
2018-08-06T02:40:22.654Z,20.89
2018-08-06T02:42:15.567Z,20.80
2018-08-06T02:43:15.550Z,20.74
2018-08-06T02:45:08.456Z,20.65
2018-08-06T02:46:08.439Z,20.68
2018-08-06T02:48:01.376Z,20.66
2018-08-06T02:49:01.367Z,20.64
2018-08-06T02:50:54.269Z,20.66
2018-08-06T02:51:54.252Z,20.64
2018-08-06T02:53:47.324Z,20.65
2018-08-06T02:54:47.305Z,20.64
2018-08-06T02:56:40.213Z,20.66
2018-08-06T02:57:40.196Z,20.58
2018-08-06T02:59:33.163Z,20.54
2018-08-06T03:00:33.168Z,20.53
2018-08-06T03:02:26.049Z,20.58
2018-08-06T03:03:26.025Z,20.51
2018-08-06T03:05:18.984Z,20.39
2018-08-06T03:06:18.961Z,20.38
2018-08-06T03:08:11.869Z,20.28
2018-08-06T03:09:11.861Z,20.23
2018-08-06T03:11:04.770Z,20.20
2018-08-06T03:12:04.757Z,20.12
2018-08-06T03:13:57.656Z,20.20
2018-08-06T03:14:57.654Z,20.13
2018-08-06T03:16:50.613Z,20.13
2018-08-06T03:17:50.543Z,20.10
2018-08-06T03:19:43.467Z,20.06
2018-08-06T03:20:43.489Z,20.24
2018-08-06T03:22:36.382Z,20.21
2018-08-06T03:23:36.365Z,20.27
2018-08-06T03:25:29.316Z,20.30
2018-08-06T03:26:29.298Z,20.27
2018-08-06T03:28:22.222Z,20.24
2018-08-06T03:29:22.208Z,20.21
2018-08-06T03:31:15.172Z,20.28
2018-08-06T03:32:15.152Z,20.23
2018-08-06T03:34:08.071Z,20.21
2018-08-06T03:35:08.062Z,20.30
2018-08-06T03:37:01.003Z,20.24
2018-08-06T03:38:00.983Z,20.16
2018-08-06T03:39:53.902Z,20.15
2018-08-06T03:40:53.882Z,20.18
2018-08-06T03:42:46.780Z,20.12
2018-08-06T03:43:46.783Z,20.18
2018-08-06T03:45:39.685Z,20.20
2018-08-06T03:46:39.671Z,20.09
2018-08-06T03:48:32.624Z,20.15
2018-08-06T03:49:32.616Z,20.00
2018-08-06T03:51:25.518Z,20.03
2018-08-06T03:52:25.515Z,20.13
2018-08-06T03:54:18.404Z,19.98
2018-08-06T03:55:18.393Z,19.95
2018-08-06T03:57:11.297Z,20.06
2018-08-06T03:58:11.285Z,20.10
2018-08-06T04:00:04.229Z,20.05
2018-08-06T04:01:04.176Z,19.98
2018-08-06T04:02:57.129Z,20.00
2018-08-06T04:03:57.117Z,19.97
2018-08-06T04:05:50.058Z,19.97
2018-08-06T04:06:50.037Z,19.93
2018-08-06T04:08:42.952Z,19.90
2018-08-06T04:09:42.941Z,19.87
2018-08-06T04:11:35.857Z,19.97
2018-08-06T04:12:35.857Z,19.94
2018-08-06T04:14:28.757Z,19.94
2018-08-06T04:15:28.744Z,19.93
2018-08-06T04:17:21.654Z,19.90
2018-08-06T04:18:21.633Z,19.94
2018-08-06T04:20:14.562Z,19.90
2018-08-06T04:21:14.546Z,19.93
2018-08-06T04:23:07.466Z,19.94
2018-08-06T04:24:07.433Z,19.91
2018-08-06T04:26:00.351Z,19.97
2018-08-06T04:27:00.333Z,19.95
2018-08-06T04:28:53.259Z,20.13
2018-08-06T04:29:53.233Z,20.02
2018-08-06T04:31:46.159Z,19.95
2018-08-06T04:32:46.181Z,19.94
2018-08-06T04:34:39.050Z,19.91
2018-08-06T04:35:39.047Z,19.90
2018-08-06T04:37:31.981Z,19.93
2018-08-06T04:38:31.995Z,19.86
2018-08-06T04:40:24.872Z,19.94
2018-08-06T04:41:24.852Z,19.91
2018-08-06T04:43:17.773Z,20.00
2018-08-06T04:44:17.755Z,19.98
2018-08-06T04:46:10.669Z,20.08
2018-08-06T04:47:10.642Z,20.06
2018-08-06T04:49:03.557Z,20.05
2018-08-06T04:50:03.550Z,20.10
2018-08-06T04:51:56.465Z,20.15
2018-08-06T04:52:56.444Z,20.16
2018-08-06T04:54:49.384Z,20.27
2018-08-06T04:55:49.379Z,20.24
2018-08-06T04:57:42.316Z,20.33
2018-08-06T04:58:42.292Z,20.41
2018-08-06T05:00:35.381Z,20.33
2018-08-06T05:01:35.373Z,20.34
2018-08-06T05:02:35.370Z,20.49
2018-08-06T05:03:35.520Z,20.51
2018-08-06T05:04:35.369Z,20.54
2018-08-06T05:05:35.365Z,20.53
2018-08-06T05:06:35.366Z,20.53
2018-08-06T05:07:35.537Z,20.58
2018-08-06T05:08:35.367Z,20.66
2018-08-06T05:09:35.558Z,20.74
2018-08-06T05:10:35.357Z,20.74
2018-08-06T05:11:35.369Z,20.79
2018-08-06T05:12:35.363Z,20.79
2018-08-06T05:13:35.395Z,20.86
2018-08-06T05:14:35.365Z,20.98
2018-08-06T05:15:35.365Z,20.90
2018-08-06T05:16:35.383Z,21.04
2018-08-06T05:17:35.447Z,21.13
2018-08-06T05:18:35.364Z,21.17
2018-08-06T05:19:35.368Z,21.21
2018-08-06T05:20:36.243Z,21.26
2018-08-06T05:21:35.364Z,21.38
2018-08-06T05:22:35.375Z,21.23
2018-08-06T05:23:35.364Z,21.35
2018-08-06T05:24:35.381Z,21.29
2018-08-06T05:25:35.374Z,21.44
2018-08-06T05:26:35.371Z,21.32
2018-08-06T05:27:35.502Z,21.53
2018-08-06T05:28:35.363Z,21.60
2018-08-06T05:29:35.501Z,21.60
2018-08-06T05:30:35.491Z,21.59
2018-08-06T05:31:35.387Z,21.57
2018-08-06T05:32:35.365Z,21.57
2018-08-06T05:33:35.365Z,21.64
2018-08-06T05:34:35.363Z,21.72
2018-08-06T05:35:35.377Z,21.76
2018-08-06T05:36:35.387Z,21.82
2018-08-06T05:37:35.569Z,21.83
2018-08-06T05:38:35.374Z,21.82
2018-08-06T05:39:35.388Z,22.02
2018-08-06T05:40:35.376Z,22.02
2018-08-06T05:41:35.393Z,22.22
2018-08-06T05:42:35.373Z,22.23
2018-08-06T05:43:35.383Z,22.20
2018-08-06T05:44:35.394Z,22.22
2018-08-06T05:45:35.382Z,22.29
2018-08-06T05:46:35.387Z,22.16
2018-08-06T05:47:35.400Z,22.13
2018-08-06T05:48:35.388Z,22.19
2018-08-06T05:49:35.387Z,22.14
2018-08-06T05:50:35.391Z,22.13
2018-08-06T05:51:35.391Z,22.20
2018-08-06T05:52:35.393Z,22.22
2018-08-06T05:53:35.397Z,22.16
2018-08-06T05:54:35.390Z,22.19
2018-08-06T05:55:35.398Z,22.09
2018-08-06T05:56:35.398Z,22.25
2018-08-06T05:57:35.442Z,22.32
2018-08-06T05:58:35.410Z,22.43
2018-08-06T05:59:35.504Z,22.47
2018-08-06T06:00:35.411Z,22.49
2018-08-06T06:01:35.406Z,22.60
2018-08-06T06:02:35.421Z,22.65
2018-08-06T06:03:35.426Z,22.68
2018-08-06T06:04:35.415Z,22.50
2018-08-06T06:05:35.442Z,22.52
2018-08-06T06:06:35.428Z,22.59
2018-08-06T06:07:35.541Z,22.50
2018-08-06T06:08:35.429Z,22.46
2018-08-06T06:09:35.511Z,22.44
2018-08-06T06:10:35.427Z,22.57
2018-08-06T06:11:35.425Z,22.59
2018-08-06T06:12:35.457Z,22.59
2018-08-06T06:13:35.434Z,22.71
2018-08-06T06:14:35.441Z,23.01
2018-08-06T06:15:35.449Z,23.01
2018-08-06T06:16:35.444Z,23.01
2018-08-06T06:17:35.448Z,22.94
2018-08-06T06:18:35.434Z,22.99
2018-08-06T06:19:35.440Z,23.20
2018-08-06T06:20:35.441Z,23.04
2018-08-06T06:21:35.447Z,23.12
2018-08-06T06:22:35.448Z,23.20
2018-08-06T06:23:35.468Z,23.22
2018-08-06T06:24:35.460Z,23.42
2018-08-06T06:25:35.465Z,23.55
2018-08-06T06:26:35.472Z,23.67
2018-08-06T06:27:35.676Z,23.89
2018-08-06T06:28:35.497Z,23.79
2018-08-06T06:29:35.692Z,23.82
2018-08-06T06:30:35.492Z,24.02
2018-08-06T06:31:35.489Z,24.10
2018-08-06T06:32:35.498Z,24.19
2018-08-06T06:33:35.497Z,24.29
2018-08-06T06:34:35.589Z,24.52
2018-08-06T06:35:35.508Z,24.63
2018-08-06T06:36:35.497Z,24.87
2018-08-06T06:37:35.532Z,24.61
2018-08-06T06:38:35.528Z,24.38
2018-08-06T06:39:35.511Z,24.12
2018-08-06T06:40:35.518Z,23.68
2018-08-06T06:41:35.537Z,23.76
2018-08-06T06:42:35.520Z,23.79
2018-08-06T06:43:35.531Z,23.92
2018-08-06T06:44:35.545Z,24.05
2018-08-06T06:45:35.536Z,24.19
2018-08-06T06:46:35.542Z,24.20
2018-08-06T06:47:35.536Z,24.12
2018-08-06T06:48:35.546Z,23.86
2018-08-06T06:49:35.549Z,23.76
2018-08-06T06:50:35.554Z,23.79
2018-08-06T06:51:35.554Z,24.08
2018-08-06T06:52:35.560Z,24.08
2018-08-06T06:53:35.566Z,24.32
2018-08-06T06:54:35.646Z,24.39
2018-08-06T06:55:35.636Z,24.37
2018-08-06T06:56:35.680Z,24.52
2018-08-06T06:57:35.669Z,24.57
2018-08-06T06:58:35.592Z,24.90
2018-08-06T06:59:35.622Z,24.77
2018-08-06T07:00:35.593Z,24.73
2018-08-06T07:01:35.692Z,24.67
2018-08-06T07:02:35.602Z,24.60
2018-08-06T07:03:35.605Z,24.73
2018-08-06T07:04:35.614Z,24.52
2018-08-06T07:05:35.621Z,24.67
2018-08-06T07:06:35.616Z,24.90
2018-08-06T07:07:35.733Z,25.01
2018-08-06T07:08:35.626Z,25.09
2018-08-06T07:09:35.743Z,24.95
2018-08-06T07:10:35.633Z,25.13
2018-08-06T07:11:35.640Z,25.44
2018-08-06T07:12:35.665Z,25.75
2018-08-06T07:13:35.654Z,25.64
2018-08-06T07:14:35.656Z,25.59
2018-08-06T07:15:35.669Z,25.82
2018-08-06T07:16:35.670Z,25.89
2018-08-06T07:17:35.792Z,25.98
2018-08-06T07:18:35.681Z,25.93
2018-08-06T07:19:35.672Z,26.05
2018-08-06T07:20:35.671Z,26.28
2018-08-06T07:21:35.671Z,26.44
2018-08-06T07:22:35.686Z,26.69
2018-08-06T07:23:35.706Z,26.76
2018-08-06T07:24:35.697Z,26.65
2018-08-06T07:25:35.695Z,26.57
2018-08-06T07:26:35.708Z,26.50
2018-08-06T07:27:36.106Z,26.42
2018-08-06T07:28:35.724Z,26.08
2018-08-06T07:29:35.876Z,26.35
2018-08-06T07:30:35.737Z,26.67
2018-08-06T07:31:35.746Z,26.77
2018-08-06T07:32:35.756Z,27.11
2018-08-06T07:33:35.767Z,27.46
2018-08-06T07:34:35.774Z,27.76
2018-08-06T07:35:35.771Z,27.42
2018-08-06T07:36:35.776Z,27.79
2018-08-06T07:37:35.859Z,28.01
2018-08-06T07:38:35.807Z,28.60
2018-08-06T07:39:35.820Z,28.96
2018-08-06T07:40:35.825Z,29.33
2018-08-06T07:41:35.844Z,29.81
2018-08-06T07:42:35.848Z,29.55
2018-08-06T07:43:35.948Z,28.68
2018-08-06T07:44:35.954Z,27.80
2018-08-06T07:45:35.917Z,27.82
2018-08-06T07:46:35.969Z,28.44
2018-08-06T07:47:35.898Z,28.78
2018-08-06T07:48:35.902Z,28.56
2018-08-06T07:49:35.947Z,28.23
2018-08-06T07:50:35.952Z,28.77
2018-08-06T07:51:35.946Z,29.22
2018-08-06T07:52:35.983Z,29.71
2018-08-06T07:53:35.988Z,29.57
2018-08-06T07:54:35.981Z,29.11
2018-08-06T07:55:35.994Z,29.20
2018-08-06T07:56:35.998Z,28.93
2018-08-06T07:57:36.060Z,29.07
2018-08-06T07:58:36.068Z,28.46
2018-08-06T07:59:36.046Z,28.78
2018-08-06T08:00:36.058Z,28.65
2018-08-06T08:01:36.072Z,28.87
2018-08-06T08:02:36.083Z,29.06
2018-08-06T08:03:36.103Z,29.47
2018-08-06T08:04:36.106Z,29.60
2018-08-06T08:05:36.124Z,29.74
2018-08-06T08:06:36.137Z,29.33
2018-08-06T08:07:36.198Z,29.04
2018-08-06T08:08:36.170Z,29.50
2018-08-06T08:09:36.267Z,29.92
2018-08-06T08:10:36.188Z,30.26
2018-08-06T08:11:36.206Z,29.72
2018-08-06T08:12:36.217Z,29.23
2018-08-06T08:13:36.226Z,29.25
2018-08-06T08:14:36.243Z,28.82
2018-08-06T08:15:36.257Z,29.49
2018-08-06T08:16:36.267Z,29.45
2018-08-06T08:17:36.280Z,29.75
2018-08-06T08:18:36.299Z,30.05
2018-08-06T08:19:36.362Z,30.21
2018-08-06T08:20:36.322Z,30.19
2018-08-06T08:21:36.336Z,30.49
2018-08-06T08:22:36.352Z,30.50
2018-08-06T08:23:36.370Z,30.80
2018-08-06T08:24:36.383Z,30.50
2018-08-06T08:25:36.431Z,30.68
2018-08-06T08:26:36.420Z,30.40
2018-08-06T08:27:36.418Z,31.17
2018-08-06T08:28:36.437Z,31.43
2018-08-06T08:29:36.472Z,31.60
2018-08-06T08:30:36.459Z,31.15
2018-08-06T08:31:36.470Z,31.18
2018-08-06T08:32:36.498Z,30.29
2018-08-06T08:33:36.509Z,30.52
2018-08-06T08:34:36.528Z,30.18
2018-08-06T08:35:36.548Z,30.02
2018-08-06T08:36:36.551Z,29.79
2018-08-06T08:37:36.577Z,29.79
2018-08-06T08:38:36.580Z,29.50
2018-08-06T08:39:36.629Z,29.01
2018-08-06T08:40:36.628Z,29.23
2018-08-06T08:41:36.622Z,29.63
2018-08-06T08:42:36.641Z,29.86
2018-08-06T08:43:36.648Z,30.18
2018-08-06T08:44:36.668Z,29.68
2018-08-06T08:45:36.731Z,29.50
2018-08-06T08:46:36.699Z,29.97
2018-08-06T08:47:36.698Z,30.30
2018-08-06T08:48:36.714Z,30.56
2018-08-06T08:49:36.741Z,31.06
2018-08-06T08:50:36.741Z,31.24
2018-08-06T08:51:36.752Z,32.07
2018-08-06T08:52:36.766Z,32.62
2018-08-06T08:53:36.822Z,33.06
2018-08-06T08:54:36.797Z,32.61
2018-08-06T08:55:36.824Z,32.11
2018-08-06T08:56:36.840Z,32.37
2018-08-06T08:57:36.841Z,32.27
2018-08-06T08:58:36.886Z,31.80
2018-08-06T08:59:36.868Z,32.39
2018-08-06T09:00:36.880Z,32.00
2018-08-06T09:01:36.897Z,32.15
2018-08-06T09:02:37.012Z,32.64
2018-08-06T09:03:36.952Z,32.99
2018-08-06T09:04:36.948Z,33.27
2018-08-06T09:05:36.962Z,32.85
2018-08-06T09:06:36.981Z,33.45
2018-08-06T09:07:36.993Z,33.41
2018-08-06T09:08:37.030Z,33.17
2018-08-06T09:09:37.039Z,32.69
2018-08-06T09:10:37.052Z,32.67
2018-08-06T09:11:37.065Z,32.44
2018-08-06T09:12:37.089Z,32.52
2018-08-06T09:13:37.094Z,32.54
2018-08-06T09:14:37.133Z,32.93
2018-08-06T09:15:37.152Z,33.41
2018-08-06T09:16:37.147Z,32.93
2018-08-06T09:17:37.162Z,33.55
2018-08-06T09:18:37.175Z,34.42
2018-08-06T09:19:37.208Z,34.66
2018-08-06T09:20:37.211Z,34.13
2018-08-06T09:21:37.231Z,34.08
2018-08-06T09:22:37.243Z,33.92
2018-08-06T09:23:37.267Z,34.66
2018-08-06T09:24:37.280Z,34.39
2018-08-06T09:25:37.296Z,34.07
2018-08-06T09:26:37.357Z,34.31
2018-08-06T09:27:37.334Z,34.76
2018-08-06T09:28:37.351Z,34.73
2018-08-06T09:29:37.382Z,34.38
2018-08-06T09:30:37.472Z,33.64
2018-08-06T09:31:37.400Z,34.50
2018-08-06T09:32:37.486Z,34.79
2018-08-06T09:33:37.431Z,34.54
2018-08-06T09:34:37.451Z,34.66
2018-08-06T09:35:37.470Z,34.20
2018-08-06T09:36:37.486Z,33.45
2018-08-06T09:37:37.504Z,33.71
2018-08-06T09:38:37.524Z,33.64
2018-08-06T09:39:37.546Z,33.67
2018-08-06T09:40:37.573Z,33.74
2018-08-06T09:41:37.577Z,34.83
2018-08-06T09:42:37.585Z,35.03
2018-08-06T09:43:37.623Z,34.99
2018-08-06T09:44:37.629Z,34.46
2018-08-06T09:45:37.647Z,34.81
2018-08-06T09:46:37.668Z,34.48
2018-08-06T09:47:37.683Z,34.95
2018-08-06T09:48:37.765Z,33.68
2018-08-06T09:49:37.726Z,33.85
2018-08-06T09:50:37.740Z,33.68
2018-08-06T09:51:37.763Z,34.20
2018-08-06T09:52:37.786Z,34.60
2018-08-06T09:53:37.794Z,35.21
2018-08-06T09:54:37.813Z,35.88
2018-08-06T09:55:37.832Z,36.43
2018-08-06T09:56:37.850Z,35.54
2018-08-06T09:57:37.875Z,35.15
2018-08-06T09:58:37.884Z,35.07
2018-08-06T09:59:37.910Z,36.06
2018-08-06T10:00:37.915Z,37.04
2018-08-06T10:01:37.940Z,36.24
2018-08-06T10:02:37.959Z,35.40
2018-08-06T10:03:37.978Z,35.60
2018-08-06T10:04:38.001Z,35.21
2018-08-06T10:05:38.034Z,33.95
2018-08-06T10:06:38.169Z,33.76
2018-08-06T10:07:38.053Z,34.07
2018-08-06T10:08:38.088Z,33.97
2018-08-06T10:09:38.099Z,34.01
2018-08-06T10:10:38.149Z,34.91
2018-08-06T10:11:38.130Z,35.69
2018-08-06T10:12:38.146Z,36.61
2018-08-06T10:13:38.163Z,37.04
2018-08-06T10:14:38.213Z,36.58
2018-08-06T10:15:38.224Z,36.24
2018-08-06T10:16:38.219Z,36.35
2018-08-06T10:17:38.248Z,35.67
2018-08-06T10:18:38.256Z,35.76
2018-08-06T10:19:38.379Z,36.43
2018-08-06T10:20:38.284Z,35.86
2018-08-06T10:21:38.315Z,34.79
2018-08-06T10:22:38.330Z,34.80
2018-08-06T10:23:38.350Z,35.51
2018-08-06T10:24:38.441Z,36.11
2018-08-06T10:25:38.390Z,36.68
2018-08-06T10:26:38.401Z,36.65
2018-08-06T10:27:38.422Z,36.77
2018-08-06T10:28:38.447Z,36.31
2018-08-06T10:29:38.466Z,34.79
2018-08-06T10:30:38.518Z,34.31
2018-08-06T10:31:38.503Z,34.86
2018-08-06T10:32:38.518Z,35.63
2018-08-06T10:33:38.556Z,35.39
2018-08-06T10:34:38.559Z,35.62
2018-08-06T10:35:38.711Z,36.26
2018-08-06T10:36:38.589Z,36.23
2018-08-06T10:37:38.627Z,35.86
2018-08-06T10:38:38.632Z,35.93
2018-08-06T10:39:38.651Z,36.46
2018-08-06T10:40:38.675Z,35.52
2018-08-06T10:41:38.686Z,35.03
2018-08-06T10:42:38.722Z,34.35
2018-08-06T10:43:38.725Z,34.39
2018-08-06T10:44:38.742Z,35.26
2018-08-06T10:45:38.746Z,35.57
2018-08-06T10:46:38.776Z,35.58
2018-08-06T10:47:38.794Z,35.89
2018-08-06T10:48:38.851Z,35.45
2018-08-06T10:49:38.829Z,35.17
2018-08-06T10:50:38.847Z,34.98
2018-08-06T10:51:38.906Z,35.10
2018-08-06T10:52:38.882Z,35.97
2018-08-06T10:53:38.905Z,36.64
2018-08-06T10:54:38.922Z,36.26
2018-08-06T10:55:38.951Z,36.99
2018-08-06T10:56:38.963Z,36.49
2018-08-06T10:57:38.969Z,36.14
2018-08-06T10:58:38.986Z,36.72
2018-08-06T10:59:39.047Z,35.85
2018-08-06T11:00:39.030Z,35.74
2018-08-06T11:01:39.055Z,35.32
2018-08-06T11:02:39.059Z,35.02
2018-08-06T11:03:39.079Z,36.01
2018-08-06T11:04:39.098Z,36.64
2018-08-06T11:05:39.119Z,36.87
2018-08-06T11:06:39.235Z,36.46
2018-08-06T11:07:39.174Z,35.91
2018-08-06T11:08:39.191Z,35.55
2018-08-06T11:09:39.190Z,36.65
2018-08-06T11:10:39.210Z,36.94
2018-08-06T11:11:39.238Z,37.04
2018-08-06T11:12:39.244Z,36.73
2018-08-06T11:13:39.272Z,36.31
2018-08-06T11:14:39.286Z,35.81
2018-08-06T11:15:39.306Z,35.73
2018-08-06T11:16:39.320Z,35.35
2018-08-06T11:17:39.342Z,35.51
2018-08-06T11:18:39.360Z,36.08
2018-08-06T11:19:39.378Z,36.19
2018-08-06T11:20:39.397Z,35.74
2018-08-06T11:21:39.413Z,36.11
2018-08-06T11:22:39.434Z,35.15
2018-08-06T11:23:39.456Z,35.63
2018-08-06T11:24:39.497Z,36.08
2018-08-06T11:25:39.495Z,36.45
2018-08-06T11:26:39.508Z,36.11
2018-08-06T11:27:39.544Z,35.39
2018-08-06T11:28:39.549Z,35.58
2018-08-06T11:29:39.571Z,35.89
2018-08-06T11:30:39.578Z,35.91
2018-08-06T11:31:39.607Z,35.63
2018-08-06T11:32:39.620Z,35.69
2018-08-06T11:33:39.638Z,35.74
2018-08-06T11:34:39.662Z,35.40
2018-08-06T11:35:39.706Z,36.01
2018-08-06T11:36:39.759Z,36.21
2018-08-06T11:37:39.719Z,35.76
2018-08-06T11:38:39.734Z,36.07
2018-08-06T11:39:39.752Z,36.60
2018-08-06T11:40:39.772Z,37.29
2018-08-06T11:41:39.784Z,38.05
2018-08-06T11:42:39.809Z,37.81
2018-08-06T11:43:39.824Z,36.86
2018-08-06T11:44:39.863Z,37.48
2018-08-06T11:45:39.868Z,38.32
2018-08-06T11:46:39.890Z,37.28
2018-08-06T11:47:39.901Z,36.60
2018-08-06T11:48:39.911Z,35.77
2018-08-06T11:49:39.938Z,35.77
2018-08-06T11:50:39.953Z,35.88
2018-08-06T11:51:39.968Z,36.31
2018-08-06T11:52:39.986Z,36.80
2018-08-06T11:53:40.013Z,37.66
2018-08-06T11:54:40.025Z,37.19
2018-08-06T11:55:40.056Z,36.99
2018-08-06T11:56:40.161Z,36.80
2018-08-06T11:57:40.075Z,36.92
2018-08-06T11:58:40.099Z,36.49
2018-08-06T11:59:40.121Z,35.73
2018-08-06T12:00:40.133Z,36.11
2018-08-06T12:01:40.166Z,35.25
2018-08-06T12:02:40.168Z,35.01
2018-08-06T12:03:40.188Z,34.51
2018-08-06T12:04:40.217Z,34.96
2018-08-06T12:05:40.238Z,34.70
2018-08-06T12:06:40.237Z,34.92
2018-08-06T12:07:40.256Z,34.27
2018-08-06T12:08:40.308Z,34.64
2018-08-06T12:09:40.281Z,35.08
2018-08-06T12:10:40.303Z,35.14
2018-08-06T12:11:40.320Z,35.03
2018-08-06T12:12:40.353Z,35.23
2018-08-06T12:13:40.379Z,35.33
2018-08-06T12:14:40.367Z,35.54
2018-08-06T12:15:40.388Z,36.29
2018-08-06T12:16:40.394Z,36.35
2018-08-06T12:17:40.412Z,36.61
2018-08-06T12:18:40.427Z,36.82
2018-08-06T12:19:40.444Z,36.49
2018-08-06T12:20:40.463Z,36.70
2018-08-06T12:21:40.476Z,37.29
2018-08-06T12:22:40.481Z,36.75
2018-08-06T12:23:40.510Z,36.51
2018-08-06T12:24:40.518Z,36.86
2018-08-06T12:25:40.536Z,36.99
2018-08-06T12:26:40.561Z,36.97
2018-08-06T12:27:40.570Z,36.70
2018-08-06T12:28:40.602Z,36.26
2018-08-06T12:29:40.601Z,36.07
2018-08-06T12:30:40.633Z,36.01
2018-08-06T12:31:40.720Z,35.52
2018-08-06T12:32:40.656Z,34.99
2018-08-06T12:33:40.725Z,34.74
2018-08-06T12:34:40.691Z,34.79
2018-08-06T12:35:40.707Z,34.77
2018-08-06T12:36:40.717Z,34.81
2018-08-06T12:37:40.737Z,34.60
2018-08-06T12:38:40.769Z,34.80
2018-08-06T12:39:40.774Z,34.60
2018-08-06T12:40:40.782Z,34.91
2018-08-06T12:41:40.796Z,34.74
2018-08-06T12:42:40.808Z,34.44
2018-08-06T12:43:40.827Z,34.44
2018-08-06T12:44:40.875Z,34.41
2018-08-06T12:45:40.841Z,34.22
2018-08-06T12:46:40.862Z,33.90
2018-08-06T12:47:40.874Z,33.52
2018-08-06T12:48:40.886Z,33.57
2018-08-06T12:49:40.900Z,32.80
2018-08-06T12:50:40.915Z,32.85
2018-08-06T12:51:40.959Z,32.89
2018-08-06T12:52:40.930Z,33.14
2018-08-06T12:53:40.943Z,32.98
2018-08-06T12:54:40.954Z,33.20
2018-08-06T12:55:40.968Z,33.06
2018-08-06T12:56:41.000Z,32.86
2018-08-06T12:57:41.000Z,32.69
2018-08-06T12:58:41.003Z,32.70
2018-08-06T12:59:41.007Z,32.55
2018-08-06T13:00:41.016Z,32.48
2018-08-06T13:01:41.029Z,32.30
2018-08-06T13:02:41.029Z,32.48
2018-08-06T13:03:41.053Z,32.32
2018-08-06T13:04:41.044Z,32.25
2018-08-06T13:05:41.055Z,32.30
2018-08-06T13:06:41.063Z,32.20
2018-08-06T13:07:41.073Z,32.13
2018-08-06T13:08:41.076Z,31.79
2018-08-06T13:09:41.092Z,31.88
2018-08-06T13:10:41.099Z,32.00
2018-08-06T13:11:41.103Z,32.17
2018-08-06T13:12:41.107Z,32.15
2018-08-06T13:13:41.119Z,32.11
2018-08-06T13:14:41.128Z,32.15
2018-08-06T13:15:41.157Z,32.37
2018-08-06T13:16:41.150Z,32.42
2018-08-06T13:17:41.148Z,32.55
2018-08-06T13:18:41.153Z,32.61
2018-08-06T13:19:41.157Z,32.54
2018-08-06T13:20:41.167Z,32.59
2018-08-06T13:21:41.176Z,32.62
2018-08-06T13:22:41.183Z,32.61
2018-08-06T13:23:41.200Z,32.66
2018-08-06T13:24:41.198Z,32.67
2018-08-06T13:25:41.207Z,32.43
2018-08-06T13:26:41.252Z,32.43
2018-08-06T13:27:41.231Z,32.58
2018-08-06T13:28:41.233Z,32.61
2018-08-06T13:29:41.233Z,32.84
2018-08-06T13:30:41.245Z,33.03
2018-08-06T13:31:41.255Z,32.98
2018-08-06T13:32:41.256Z,32.80
2018-08-06T13:33:41.267Z,32.74
2018-08-06T13:34:41.274Z,32.66
2018-08-06T13:35:41.285Z,32.59
2018-08-06T13:36:41.290Z,32.64
2018-08-06T13:37:41.298Z,32.66
2018-08-06T13:38:41.300Z,32.55
2018-08-06T13:39:41.320Z,32.55
2018-08-06T13:40:41.312Z,32.66
2018-08-06T13:41:41.319Z,32.70
2018-08-06T13:42:41.327Z,32.86
2018-08-06T13:43:41.333Z,32.89
2018-08-06T13:44:41.344Z,32.61
2018-08-06T13:45:41.351Z,32.52
2018-08-06T13:46:41.377Z,32.55
2018-08-06T13:47:41.363Z,32.36
2018-08-06T13:48:41.394Z,32.25
2018-08-06T13:49:41.381Z,32.14
2018-08-06T13:50:41.386Z,32.27
2018-08-06T13:51:41.398Z,32.17
2018-08-06T13:52:41.400Z,32.10
2018-08-06T13:53:41.410Z,32.14
2018-08-06T13:54:41.425Z,31.96
2018-08-06T13:55:41.416Z,31.88
2018-08-06T13:56:41.428Z,31.75
2018-08-06T13:57:41.437Z,31.75
2018-08-06T13:58:41.458Z,31.84
2018-08-06T13:59:41.445Z,31.82
2018-08-06T14:00:41.457Z,31.85
2018-08-06T14:01:41.464Z,31.93
2018-08-06T14:02:41.468Z,31.84
2018-08-06T14:03:41.469Z,31.79
2018-08-06T14:04:41.477Z,31.85
2018-08-06T14:05:41.489Z,31.84
2018-08-06T14:06:41.501Z,31.76
2018-08-06T14:07:41.494Z,31.75
2018-08-06T14:08:41.503Z,31.80
2018-08-06T14:09:41.524Z,31.76
2018-08-06T14:10:41.514Z,31.91
2018-08-06T14:11:41.533Z,32.17
2018-08-06T14:12:41.540Z,32.25
2018-08-06T14:13:41.537Z,32.48
2018-08-06T14:14:41.545Z,32.58
2018-08-06T14:15:41.549Z,32.57
2018-08-06T14:16:41.580Z,32.49
2018-08-06T14:17:41.563Z,32.36
2018-08-06T14:18:41.590Z,32.25
2018-08-06T14:19:41.572Z,32.18